sensor_id;sensor_type;location;lat;lon;timestamp;P1;durP1;ratioP1;P2;durP2;ratioP2
47856;SDS011;33618;49.972;8.242;2023-06-26T00:00:16;7.07;;;4.70;;
47856;SDS011;33618;49.972;8.242;2023-06-26T00:02:44;5.78;;;5.25;;
47856;SDS011;33618;49.972;8.242;2023-06-26T00:05:11;5.80;;;5.30;;
47856;SDS011;33618;49.972;8.242;2023-06-26T00:07:39;5.80;;;5.30;;
47856;SDS011;33618;49.972;8.242;2023-06-26T00:10:06;5.70;;;5.00;;
47856;SDS011;33618;49.972;8.242;2023-06-26T00:12:34;5.75;;;5.15;;
47856;SDS011;33618;49.972;8.242;2023-06-26T00:15:02;5.80;;;5.30;;
47856;SDS011;33618;49.972;8.242;2023-06-26T00:17:29;6.05;;;5.55;;
47856;SDS011;33618;49.972;8.242;2023-06-26T00:19:56;5.45;;;4.97;;
47856;SDS011;33618;49.972;8.242;2023-06-26T00:22:23;5.85;;;5.35;;
47856;SDS011;33618;49.972;8.242;2023-06-26T00:24:50;6.18;;;5.25;;
47856;SDS011;33618;49.972;8.242;2023-06-26T00:27:17;6.68;;;5.63;;
47856;SDS011;33618;49.972;8.242;2023-06-26T00:29:44;7.07;;;5.10;;
47856;SDS011;33618;49.972;8.242;2023-06-26T00:32:11;6.03;;;5.43;;
47856;SDS011;33618;49.972;8.242;2023-06-26T00:34:38;5.72;;;5.22;;
47856;SDS011;33618;49.972;8.242;2023-06-26T00:37:05;6.28;;;5.40;;
47856;SDS011;33618;49.972;8.242;2023-06-26T00:39:33;6.10;;;5.50;;
47856;SDS011;33618;49.972;8.242;2023-06-26T00:42:00;6.50;;;5.25;;
47856;SDS011;33618;49.972;8.242;2023-06-26T00:44:27;8.65;;;5.45;;
47856;SDS011;33618;49.972;8.242;2023-06-26T00:46:54;5.72;;;5.00;;
47856;SDS011;33618;49.972;8.242;2023-06-26T00:49:21;5.97;;;5.38;;
47856;SDS011;33618;49.972;8.242;2023-06-26T00:51:48;5.78;;;5.30;;
47856;SDS011;33618;49.972;8.242;2023-06-26T00:54:15;5.38;;;4.88;;
47856;SDS011;33618;49.972;8.242;2023-06-26T00:56:46;6.40;;;5.43;;
47856;SDS011;33618;49.972;8.242;2023-06-26T00:59:13;5.55;;;5.15;;
47856;SDS011;33618;49.972;8.242;2023-06-26T01:01:41;5.93;;;5.43;;
47856;SDS011;33618;49.972;8.242;2023-06-26T01:04:08;6.00;;;5.30;;
47856;SDS011;33618;49.972;8.242;2023-06-26T01:09:16;5.70;;;5.13;;
47856;SDS011;33618;49.972;8.242;2023-06-26T01:11:47;5.50;;;5.00;;
47856;SDS011;33618;49.972;8.242;2023-06-26T01:14:14;6.32;;;5.20;;
47856;SDS011;33618;49.972;8.242;2023-06-26T01:16:41;6.20;;;5.70;;
47856;SDS011;33618;49.972;8.242;2023-06-26T01:19:19;6.00;;;5.40;;
47856;SDS011;33618;49.972;8.242;2023-06-26T01:24:55;7.75;;;5.80;;
47856;SDS011;33618;49.972;8.242;2023-06-26T01:27:27;6.90;;;6.10;;
47856;SDS011;33618;49.972;8.242;2023-06-26T01:29:59;6.13;;;5.50;;
47856;SDS011;33618;49.972;8.242;2023-06-26T01:32:29;7.63;;;5.20;;
47856;SDS011;33618;49.972;8.242;2023-06-26T01:34:58;6.20;;;5.50;;
47856;SDS011;33618;49.972;8.242;2023-06-26T01:37:26;6.15;;;5.55;;
47856;SDS011;33618;49.972;8.242;2023-06-26T01:39:53;6.53;;;5.93;;
47856;SDS011;33618;49.972;8.242;2023-06-26T01:42:20;6.55;;;5.78;;
47856;SDS011;33618;49.972;8.242;2023-06-26T01:44:47;6.30;;;5.70;;
47856;SDS011;33618;49.972;8.242;2023-06-26T01:47:16;6.57;;;5.97;;
47856;SDS011;33618;49.972;8.242;2023-06-26T01:52:38;6.50;;;5.95;;
47856;SDS011;33618;49.972;8.242;2023-06-26T01:58:02;6.88;;;6.22;;
47856;SDS011;33618;49.972;8.242;2023-06-26T02:00:30;6.07;;;5.30;;
47856;SDS011;33618;49.972;8.242;2023-06-26T02:02:58;6.10;;;5.60;;
47856;SDS011;33618;49.972;8.242;2023-06-26T02:05:25;6.63;;;6.03;;
47856;SDS011;33618;49.972;8.242;2023-06-26T02:07:52;6.68;;;5.88;;
47856;SDS011;33618;49.972;8.242;2023-06-26T02:10:19;6.57;;;5.97;;
47856;SDS011;33618;49.972;8.242;2023-06-26T02:12:46;6.78;;;5.93;;
47856;SDS011;33618;49.972;8.242;2023-06-26T02:15:13;7.40;;;6.13;;
47856;SDS011;33618;49.972;8.242;2023-06-26T02:17:40;7.72;;;6.60;;
47856;SDS011;33618;49.972;8.242;2023-06-26T02:20:07;7.50;;;6.75;;
47856;SDS011;33618;49.972;8.242;2023-06-26T02:22:36;6.57;;;5.97;;
47856;SDS011;33618;49.972;8.242;2023-06-26T02:25:03;7.00;;;6.10;;
47856;SDS011;33618;49.972;8.242;2023-06-26T02:27:31;6.50;;;5.90;;
47856;SDS011;33618;49.972;8.242;2023-06-26T02:29:58;6.60;;;6.00;;
47856;SDS011;33618;49.972;8.242;2023-06-26T02:32:24;6.38;;;5.78;;
47856;SDS011;33618;49.972;8.242;2023-06-26T02:34:52;6.55;;;5.95;;
47856;SDS011;33618;49.972;8.242;2023-06-26T02:37:19;6.43;;;5.82;;
47856;SDS011;33618;49.972;8.242;2023-06-26T02:39:46;6.82;;;5.82;;
47856;SDS011;33618;49.972;8.242;2023-06-26T02:42:13;7.68;;;5.85;;
47856;SDS011;33618;49.972;8.242;2023-06-26T02:44:41;6.70;;;6.00;;
47856;SDS011;33618;49.972;8.242;2023-06-26T02:47:08;8.05;;;6.07;;
47856;SDS011;33618;49.972;8.242;2023-06-26T02:49:35;7.32;;;6.50;;
47856;SDS011;33618;49.972;8.242;2023-06-26T02:52:02;6.90;;;6.28;;
47856;SDS011;33618;49.972;8.242;2023-06-26T02:54:29;6.70;;;6.10;;
47856;SDS011;33618;49.972;8.242;2023-06-26T02:56:56;6.15;;;5.65;;
47856;SDS011;33618;49.972;8.242;2023-06-26T02:59:23;6.55;;;5.90;;
47856;SDS011;33618;49.972;8.242;2023-06-26T03:01:50;6.65;;;5.93;;
47856;SDS011;33618;49.972;8.242;2023-06-26T03:04:17;9.32;;;6.10;;
47856;SDS011;33618;49.972;8.242;2023-06-26T03:06:44;6.43;;;5.82;;
47856;SDS011;33618;49.972;8.242;2023-06-26T03:09:11;6.82;;;6.13;;
47856;SDS011;33618;49.972;8.242;2023-06-26T03:11:38;6.38;;;5.88;;
47856;SDS011;33618;49.972;8.242;2023-06-26T03:14:05;8.57;;;6.10;;
47856;SDS011;33618;49.972;8.242;2023-06-26T03:16:32;11.13;;;6.03;;
47856;SDS011;33618;49.972;8.242;2023-06-26T03:19:00;6.57;;;5.93;;
47856;SDS011;33618;49.972;8.242;2023-06-26T03:21:27;9.52;;;6.53;;
47856;SDS011;33618;49.972;8.242;2023-06-26T03:23:54;9.27;;;6.07;;
47856;SDS011;33618;49.972;8.242;2023-06-26T03:26:21;10.13;;;6.25;;
47856;SDS011;33618;49.972;8.242;2023-06-26T03:28:54;8.38;;;6.00;;
47856;SDS011;33618;49.972;8.242;2023-06-26T03:31:21;6.22;;;5.63;;
47856;SDS011;33618;49.972;8.242;2023-06-26T03:33:48;6.57;;;5.90;;
47856;SDS011;33618;49.972;8.242;2023-06-26T03:36:15;6.88;;;6.28;;
47856;SDS011;33618;49.972;8.242;2023-06-26T03:38:42;6.20;;;5.70;;
47856;SDS011;33618;49.972;8.242;2023-06-26T03:41:09;6.82;;;6.22;;
47856;SDS011;33618;49.972;8.242;2023-06-26T03:43:37;6.65;;;6.00;;
47856;SDS011;33618;49.972;8.242;2023-06-26T03:46:04;7.07;;;5.85;;
47856;SDS011;33618;49.972;8.242;2023-06-26T03:48:31;6.13;;;5.55;;
47856;SDS011;33618;49.972;8.242;2023-06-26T03:50:58;7.90;;;6.55;;
47856;SDS011;33618;49.972;8.242;2023-06-26T03:53:27;8.93;;;7.55;;
47856;SDS011;33618;49.972;8.242;2023-06-26T03:55:55;7.95;;;7.18;;
47856;SDS011;33618;49.972;8.242;2023-06-26T03:58:22;9.13;;;8.20;;
47856;SDS011;33618;49.972;8.242;2023-06-26T04:00:49;13.63;;;10.70;;
47856;SDS011;33618;49.972;8.242;2023-06-26T04:03:17;12.45;;;10.45;;
47856;SDS011;33618;49.972;8.242;2023-06-26T04:05:44;14.90;;;11.63;;
47856;SDS011;33618;49.972;8.242;2023-06-26T04:08:11;15.85;;;12.88;;
47856;SDS011;33618;49.972;8.242;2023-06-26T04:10:39;16.50;;;12.38;;
47856;SDS011;33618;49.972;8.242;2023-06-26T04:13:06;14.40;;;10.75;;
47856;SDS011;33618;49.972;8.242;2023-06-26T04:15:33;13.70;;;10.73;;
47856;SDS011;33618;49.972;8.242;2023-06-26T04:18:01;10.68;;;9.18;;
47856;SDS011;33618;49.972;8.242;2023-06-26T04:20:29;9.70;;;7.20;;
47856;SDS011;33618;49.972;8.242;2023-06-26T04:22:56;6.28;;;5.55;;
47856;SDS011;33618;49.972;8.242;2023-06-26T04:25:23;7.05;;;6.45;;
47856;SDS011;33618;49.972;8.242;2023-06-26T04:27:55;9.93;;;7.03;;
47856;SDS011;33618;49.972;8.242;2023-06-26T04:30:22;9.65;;;6.72;;
47856;SDS011;33618;49.972;8.242;2023-06-26T04:32:49;8.70;;;6.20;;
47856;SDS011;33618;49.972;8.242;2023-06-26T04:35:17;8.68;;;6.13;;
47856;SDS011;33618;49.972;8.242;2023-06-26T04:37:43;7.05;;;5.93;;
47856;SDS011;33618;49.972;8.242;2023-06-26T04:40:11;6.53;;;5.93;;
47856;SDS011;33618;49.972;8.242;2023-06-26T04:42:39;7.05;;;5.40;;
47856;SDS011;33618;49.972;8.242;2023-06-26T04:45:06;6.28;;;5.78;;
47856;SDS011;33618;49.972;8.242;2023-06-26T04:47:33;6.65;;;5.63;;
47856;SDS011;33618;49.972;8.242;2023-06-26T04:50:00;17.92;;;13.00;;
47856;SDS011;33618;49.972;8.242;2023-06-26T04:52:27;7.15;;;6.45;;
47856;SDS011;33618;49.972;8.242;2023-06-26T04:54:54;10.40;;;9.32;;
47856;SDS011;33618;49.972;8.242;2023-06-26T04:57:21;9.05;;;7.40;;
47856;SDS011;33618;49.972;8.242;2023-06-26T04:59:49;9.23;;;8.10;;
47856;SDS011;33618;49.972;8.242;2023-06-26T05:02:16;10.43;;;9.20;;
47856;SDS011;33618;49.972;8.242;2023-06-26T05:04:43;12.35;;;9.57;;
47856;SDS011;33618;49.972;8.242;2023-06-26T05:07:10;9.35;;;8.38;;
47856;SDS011;33618;49.972;8.242;2023-06-26T05:09:37;11.75;;;10.27;;
47856;SDS011;33618;49.972;8.242;2023-06-26T05:12:04;11.85;;;9.30;;
47856;SDS011;33618;49.972;8.242;2023-06-26T05:14:32;9.52;;;8.63;;
47856;SDS011;33618;49.972;8.242;2023-06-26T05:16:59;9.43;;;8.25;;
47856;SDS011;33618;49.972;8.242;2023-06-26T05:19:25;12.27;;;7.28;;
47856;SDS011;33618;49.972;8.242;2023-06-26T05:21:53;8.85;;;7.95;;
47856;SDS011;33618;49.972;8.242;2023-06-26T05:24:21;9.38;;;7.05;;
47856;SDS011;33618;49.972;8.242;2023-06-26T05:26:50;9.57;;;7.35;;
47856;SDS011;33618;49.972;8.242;2023-06-26T05:29:17;10.60;;;6.68;;
47856;SDS011;33618;49.972;8.242;2023-06-26T05:31:44;7.32;;;6.57;;
47856;SDS011;33618;49.972;8.242;2023-06-26T05:34:13;15.57;;;7.30;;
47856;SDS011;33618;49.972;8.242;2023-06-26T05:36:41;10.48;;;6.45;;
47856;SDS011;33618;49.972;8.242;2023-06-26T05:39:09;11.82;;;6.93;;
47856;SDS011;33618;49.972;8.242;2023-06-26T05:41:37;7.25;;;6.45;;
47856;SDS011;33618;49.972;8.242;2023-06-26T05:44:07;6.68;;;6.07;;
47856;SDS011;33618;49.972;8.242;2023-06-26T05:46:34;6.70;;;6.10;;
47856;SDS011;33618;49.972;8.242;2023-06-26T05:49:01;6.63;;;6.00;;
47856;SDS011;33618;49.972;8.242;2023-06-26T05:51:28;5.82;;;5.30;;
47856;SDS011;33618;49.972;8.242;2023-06-26T05:53:55;7.15;;;6.05;;
47856;SDS011;33618;49.972;8.242;2023-06-26T05:56:22;9.27;;;5.95;;
47856;SDS011;33618;49.972;8.242;2023-06-26T05:58:50;8.55;;;5.75;;
47856;SDS011;33618;49.972;8.242;2023-06-26T06:01:18;6.75;;;6.05;;
47856;SDS011;33618;49.972;8.242;2023-06-26T06:03:46;7.10;;;6.30;;
47856;SDS011;33618;49.972;8.242;2023-06-26T06:06:13;6.07;;;5.50;;
47856;SDS011;33618;49.972;8.242;2023-06-26T06:08:40;6.43;;;5.80;;
47856;SDS011;33618;49.972;8.242;2023-06-26T06:11:08;8.35;;;5.88;;
47856;SDS011;33618;49.972;8.242;2023-06-26T06:13:34;9.05;;;5.80;;
47856;SDS011;33618;49.972;8.242;2023-06-26T06:16:01;6.57;;;5.82;;
47856;SDS011;33618;49.972;8.242;2023-06-26T06:18:28;9.38;;;6.03;;
47856;SDS011;33618;49.972;8.242;2023-06-26T06:20:55;5.95;;;5.32;;
47856;SDS011;33618;49.972;8.242;2023-06-26T06:23:22;6.20;;;5.70;;
47856;SDS011;33618;49.972;8.242;2023-06-26T06:25:49;5.95;;;5.38;;
47856;SDS011;33618;49.972;8.242;2023-06-26T06:28:16;5.75;;;5.25;;
47856;SDS011;33618;49.972;8.242;2023-06-26T06:30:43;5.53;;;4.93;;
47856;SDS011;33618;49.972;8.242;2023-06-26T06:33:11;5.72;;;5.22;;
47856;SDS011;33618;49.972;8.242;2023-06-26T06:35:39;6.18;;;5.22;;
47856;SDS011;33618;49.972;8.242;2023-06-26T06:38:06;6.18;;;5.57;;
47856;SDS011;33618;49.972;8.242;2023-06-26T06:40:32;6.43;;;5.47;;
47856;SDS011;33618;49.972;8.242;2023-06-26T06:42:59;8.02;;;5.43;;
47856;SDS011;33618;49.972;8.242;2023-06-26T06:45:27;6.22;;;5.63;;
47856;SDS011;33618;49.972;8.242;2023-06-26T06:47:54;6.22;;;5.60;;
47856;SDS011;33618;49.972;8.242;2023-06-26T06:50:21;7.85;;;5.60;;
47856;SDS011;33618;49.972;8.242;2023-06-26T06:52:48;6.97;;;5.80;;
47856;SDS011;33618;49.972;8.242;2023-06-26T06:55:15;5.97;;;5.15;;
47856;SDS011;33618;49.972;8.242;2023-06-26T06:57:44;6.57;;;4.70;;
47856;SDS011;33618;49.972;8.242;2023-06-26T07:00:12;5.63;;;5.13;;
47856;SDS011;33618;49.972;8.242;2023-06-26T07:02:43;5.88;;;5.10;;
47856;SDS011;33618;49.972;8.242;2023-06-26T07:05:13;5.93;;;5.25;;
47856;SDS011;33618;49.972;8.242;2023-06-26T07:07:40;5.90;;;5.30;;
47856;SDS011;33618;49.972;8.242;2023-06-26T07:10:08;8.07;;;5.47;;
47856;SDS011;33618;49.972;8.242;2023-06-26T07:12:36;6.32;;;5.22;;
47856;SDS011;33618;49.972;8.242;2023-06-26T07:15:04;8.50;;;5.38;;
47856;SDS011;33618;49.972;8.242;2023-06-26T07:17:33;6.75;;;5.40;;
47856;SDS011;33618;49.972;8.242;2023-06-26T07:20:01;5.80;;;5.30;;
47856;SDS011;33618;49.972;8.242;2023-06-26T07:22:31;8.18;;;5.45;;
47856;SDS011;33618;49.972;8.242;2023-06-26T07:24:59;5.82;;;5.03;;
47856;SDS011;33618;49.972;8.242;2023-06-26T07:27:26;5.88;;;5.10;;
47856;SDS011;33618;49.972;8.242;2023-06-26T07:29:52;9.13;;;5.38;;
47856;SDS011;33618;49.972;8.242;2023-06-26T07:32:19;5.70;;;5.20;;
47856;SDS011;33618;49.972;8.242;2023-06-26T07:34:46;5.20;;;4.70;;
47856;SDS011;33618;49.972;8.242;2023-06-26T07:37:13;5.85;;;4.75;;
47856;SDS011;33618;49.972;8.242;2023-06-26T07:39:40;5.28;;;4.88;;
47856;SDS011;33618;49.972;8.242;2023-06-26T07:42:07;5.70;;;5.18;;
47856;SDS011;33618;49.972;8.242;2023-06-26T07:44:34;5.50;;;5.10;;
47856;SDS011;33618;49.972;8.242;2023-06-26T07:47:01;5.40;;;4.90;;
47856;SDS011;33618;49.972;8.242;2023-06-26T07:49:28;5.35;;;4.90;;
47856;SDS011;33618;49.972;8.242;2023-06-26T07:51:55;5.13;;;4.72;;
47856;SDS011;33618;49.972;8.242;2023-06-26T07:54:22;5.80;;;4.47;;
47856;SDS011;33618;49.972;8.242;2023-06-26T07:57:00;7.55;;;5.10;;
47856;SDS011;33618;49.972;8.242;2023-06-26T07:59:28;5.18;;;4.68;;
47856;SDS011;33618;49.972;8.242;2023-06-26T08:01:56;4.90;;;4.50;;
47856;SDS011;33618;49.972;8.242;2023-06-26T08:04:25;5.07;;;4.68;;
47856;SDS011;33618;49.972;8.242;2023-06-26T08:06:54;5.78;;;4.68;;
47856;SDS011;33618;49.972;8.242;2023-06-26T08:09:25;5.78;;;4.80;;
47856;SDS011;33618;49.972;8.242;2023-06-26T08:11:53;6.72;;;4.90;;
47856;SDS011;33618;49.972;8.242;2023-06-26T08:14:21;7.68;;;5.05;;
47856;SDS011;33618;49.972;8.242;2023-06-26T08:16:48;6.32;;;4.80;;
47856;SDS011;33618;49.972;8.242;2023-06-26T08:19:16;9.07;;;4.38;;
47856;SDS011;33618;49.972;8.242;2023-06-26T08:21:44;6.78;;;4.88;;
47856;SDS011;33618;49.972;8.242;2023-06-26T08:24:12;5.18;;;4.50;;
47856;SDS011;33618;49.972;8.242;2023-06-26T08:26:39;5.28;;;4.78;;
47856;SDS011;33618;49.972;8.242;2023-06-26T08:29:06;5.82;;;4.90;;
47856;SDS011;33618;49.972;8.242;2023-06-26T08:31:38;5.22;;;4.75;;
47856;SDS011;33618;49.972;8.242;2023-06-26T08:34:07;4.97;;;4.50;;
47856;SDS011;33618;49.972;8.242;2023-06-26T08:36:34;7.40;;;4.72;;
47856;SDS011;33618;49.972;8.242;2023-06-26T08:39:01;4.85;;;4.45;;
47856;SDS011;33618;49.972;8.242;2023-06-26T08:41:29;5.60;;;5.10;;
47856;SDS011;33618;49.972;8.242;2023-06-26T08:43:56;6.07;;;4.90;;
47856;SDS011;33618;49.972;8.242;2023-06-26T08:46:23;6.40;;;4.88;;
47856;SDS011;33618;49.972;8.242;2023-06-26T08:48:55;4.95;;;4.55;;
47856;SDS011;33618;49.972;8.242;2023-06-26T08:51:24;5.15;;;4.63;;
47856;SDS011;33618;49.972;8.242;2023-06-26T08:56:22;4.70;;;4.30;;
47856;SDS011;33618;49.972;8.242;2023-06-26T08:58:51;6.35;;;4.60;;
47856;SDS011;33618;49.972;8.242;2023-06-26T09:01:19;4.72;;;4.35;;
47856;SDS011;33618;49.972;8.242;2023-06-26T09:03:47;5.07;;;4.60;;
47856;SDS011;33618;49.972;8.242;2023-06-26T09:06:14;5.40;;;4.85;;
47856;SDS011;33618;49.972;8.242;2023-06-26T09:08:41;5.97;;;4.53;;
47856;SDS011;33618;49.972;8.242;2023-06-26T09:11:08;8.02;;;4.63;;
47856;SDS011;33618;49.972;8.242;2023-06-26T09:13:36;5.55;;;4.50;;
47856;SDS011;33618;49.972;8.242;2023-06-26T09:16:06;4.75;;;4.20;;
47856;SDS011;33618;49.972;8.242;2023-06-26T09:18:34;4.75;;;4.30;;
47856;SDS011;33618;49.972;8.242;2023-06-26T09:21:08;5.10;;;4.70;;
47856;SDS011;33618;49.972;8.242;2023-06-26T09:23:37;4.78;;;4.45;;
47856;SDS011;33618;49.972;8.242;2023-06-26T09:26:06;6.03;;;4.30;;
47856;SDS011;33618;49.972;8.242;2023-06-26T09:28:34;4.65;;;4.25;;
47856;SDS011;33618;49.972;8.242;2023-06-26T09:31:02;4.93;;;4.43;;
47856;SDS011;33618;49.972;8.242;2023-06-26T09:33:34;5.63;;;4.43;;
47856;SDS011;33618;49.972;8.242;2023-06-26T09:36:06;4.78;;;3.97;;
47856;SDS011;33618;49.972;8.242;2023-06-26T09:38:38;5.07;;;4.57;;
47856;SDS011;33618;49.972;8.242;2023-06-26T09:41:07;5.03;;;4.63;;
47856;SDS011;33618;49.972;8.242;2023-06-26T09:43:36;6.20;;;4.35;;
47856;SDS011;33618;49.972;8.242;2023-06-26T09:46:31;4.90;;;4.40;;
47856;SDS011;33618;49.972;8.242;2023-06-26T09:49:03;8.00;;;4.43;;
47856;SDS011;33618;49.972;8.242;2023-06-26T09:51:35;4.93;;;4.53;;
47856;SDS011;33618;49.972;8.242;2023-06-26T09:54:10;7.22;;;4.32;;
47856;SDS011;33618;49.972;8.242;2023-06-26T09:56:37;4.90;;;4.57;;
47856;SDS011;33618;49.972;8.242;2023-06-26T09:59:05;5.63;;;4.47;;
47856;SDS011;33618;49.972;8.242;2023-06-26T10:01:33;5.32;;;4.47;;
47856;SDS011;33618;49.972;8.242;2023-06-26T10:04:03;4.68;;;4.28;;
47856;SDS011;33618;49.972;8.242;2023-06-26T10:06:35;4.70;;;4.30;;
47856;SDS011;33618;49.972;8.242;2023-06-26T10:09:12;4.75;;;4.35;;
47856;SDS011;33618;49.972;8.242;2023-06-26T10:14:13;4.85;;;4.25;;
47856;SDS011;33618;49.972;8.242;2023-06-26T10:16:44;5.00;;;4.43;;
47856;SDS011;33618;49.972;8.242;2023-06-26T10:19:13;5.80;;;4.80;;
47856;SDS011;33618;49.972;8.242;2023-06-26T10:21:46;4.57;;;4.10;;
47856;SDS011;33618;49.972;8.242;2023-06-26T10:24:13;4.65;;;4.25;;
47856;SDS011;33618;49.972;8.242;2023-06-26T10:26:42;4.43;;;4.03;;
47856;SDS011;33618;49.972;8.242;2023-06-26T10:29:12;4.43;;;4.03;;
47856;SDS011;33618;49.972;8.242;2023-06-26T10:31:43;4.18;;;3.88;;
47856;SDS011;33618;49.972;8.242;2023-06-26T10:34:14;4.50;;;4.10;;
47856;SDS011;33618;49.972;8.242;2023-06-26T10:36:42;7.57;;;4.35;;
47856;SDS011;33618;49.972;8.242;2023-06-26T10:39:09;4.32;;;4.03;;
47856;SDS011;33618;49.972;8.242;2023-06-26T10:41:37;4.03;;;3.72;;
47856;SDS011;33618;49.972;8.242;2023-06-26T10:44:26;5.22;;;4.07;;
47856;SDS011;33618;49.972;8.242;2023-06-26T10:46:54;4.72;;;4.32;;
47856;SDS011;33618;49.972;8.242;2023-06-26T10:49:27;4.00;;;3.70;;
47856;SDS011;33618;49.972;8.242;2023-06-26T10:51:56;4.20;;;3.88;;
47856;SDS011;33618;49.972;8.242;2023-06-26T10:54:31;3.85;;;3.58;;
47856;SDS011;33618;49.972;8.242;2023-06-26T10:56:59;4.53;;;4.22;;
47856;SDS011;33618;49.972;8.242;2023-06-26T10:59:30;3.80;;;3.50;;
47856;SDS011;33618;49.972;8.242;2023-06-26T11:02:02;5.90;;;4.18;;
47856;SDS011;33618;49.972;8.242;2023-06-26T11:04:36;4.38;;;3.97;;
47856;SDS011;33618;49.972;8.242;2023-06-26T11:10:01;4.65;;;4.25;;
47856;SDS011;33618;49.972;8.242;2023-06-26T11:17:36;5.72;;;4.15;;
47856;SDS011;33618;49.972;8.242;2023-06-26T11:20:08;4.85;;;4.43;;
47856;SDS011;33618;49.972;8.242;2023-06-26T11:22:37;5.18;;;4.68;;
47856;SDS011;33618;49.972;8.242;2023-06-26T11:25:05;8.77;;;5.10;;
47856;SDS011;33618;49.972;8.242;2023-06-26T11:30:08;5.53;;;5.03;;
47856;SDS011;33618;49.972;8.242;2023-06-26T11:32:37;7.05;;;5.20;;
47856;SDS011;33618;49.972;8.242;2023-06-26T11:35:05;6.25;;;5.75;;
47856;SDS011;33618;49.972;8.242;2023-06-26T11:37:33;6.82;;;5.43;;
47856;SDS011;33618;49.972;8.242;2023-06-26T11:40:15;7.95;;;5.88;;
47856;SDS011;33618;49.972;8.242;2023-06-26T11:42:46;6.32;;;5.82;;
47856;SDS011;33618;49.972;8.242;2023-06-26T11:45:13;10.65;;;6.15;;
47856;SDS011;33618;49.972;8.242;2023-06-26T11:47:40;10.98;;;6.40;;
47856;SDS011;33618;49.972;8.242;2023-06-26T11:50:14;6.68;;;6.07;;
47856;SDS011;33618;49.972;8.242;2023-06-26T11:52:45;6.45;;;5.75;;
47856;SDS011;33618;49.972;8.242;2023-06-26T11:55:18;6.45;;;5.85;;
47856;SDS011;33618;49.972;8.242;2023-06-26T11:57:53;6.57;;;6.05;;
47856;SDS011;33618;49.972;8.242;2023-06-26T12:00:21;6.53;;;5.93;;
47856;SDS011;33618;49.972;8.242;2023-06-26T12:02:49;9.13;;;5.10;;
47856;SDS011;33618;49.972;8.242;2023-06-26T12:05:18;6.95;;;5.57;;
47856;SDS011;33618;49.972;8.242;2023-06-26T12:07:47;7.03;;;4.95;;
47856;SDS011;33618;49.972;8.242;2023-06-26T12:10:15;5.00;;;4.60;;
47856;SDS011;33618;49.972;8.242;2023-06-26T12:12:43;4.65;;;4.10;;
47856;SDS011;33618;49.972;8.242;2023-06-26T12:15:13;7.05;;;4.05;;
47856;SDS011;33618;49.972;8.242;2023-06-26T12:17:42;4.10;;;3.55;;
47856;SDS011;33618;49.972;8.242;2023-06-26T12:20:20;4.32;;;4.03;;
47856;SDS011;33618;49.972;8.242;2023-06-26T12:22:48;4.22;;;3.72;;
47856;SDS011;33618;49.972;8.242;2023-06-26T12:25:16;3.90;;;3.60;;
47856;SDS011;33618;49.972;8.242;2023-06-26T12:27:49;4.38;;;3.28;;
47856;SDS011;33618;49.972;8.242;2023-06-26T12:30:16;4.00;;;3.65;;
47856;SDS011;33618;49.972;8.242;2023-06-26T12:32:44;5.28;;;3.40;;
47856;SDS011;33618;49.972;8.242;2023-06-26T12:35:13;3.75;;;3.20;;
47856;SDS011;33618;49.972;8.242;2023-06-26T12:37:42;3.35;;;3.05;;
47856;SDS011;33618;49.972;8.242;2023-06-26T12:40:17;5.53;;;3.30;;
47856;SDS011;33618;49.972;8.242;2023-06-26T12:42:45;6.05;;;3.50;;
47856;SDS011;33618;49.972;8.242;2023-06-26T12:45:13;7.43;;;3.97;;
47856;SDS011;33618;49.972;8.242;2023-06-26T12:48:10;4.90;;;3.60;;
47856;SDS011;33618;49.972;8.242;2023-06-26T12:50:45;6.03;;;3.70;;
47856;SDS011;33618;49.972;8.242;2023-06-26T12:53:12;7.45;;;3.90;;
47856;SDS011;33618;49.972;8.242;2023-06-26T12:55:40;4.60;;;3.70;;
47856;SDS011;33618;49.972;8.242;2023-06-26T12:58:07;4.55;;;4.05;;
47856;SDS011;33618;49.972;8.242;2023-06-26T13:00:36;4.80;;;3.70;;
47856;SDS011;33618;49.972;8.242;2023-06-26T13:03:04;4.55;;;3.60;;
47856;SDS011;33618;49.972;8.242;2023-06-26T13:05:34;4.30;;;3.25;;
47856;SDS011;33618;49.972;8.242;2023-06-26T13:08:01;7.97;;;3.42;;
47856;SDS011;33618;49.972;8.242;2023-06-26T13:10:30;3.72;;;3.42;;
47856;SDS011;33618;49.972;8.242;2023-06-26T13:12:57;4.45;;;3.45;;
47856;SDS011;33618;49.972;8.242;2023-06-26T13:15:24;6.40;;;3.60;;
47856;SDS011;33618;49.972;8.242;2023-06-26T13:17:51;4.75;;;3.05;;
47856;SDS011;33618;49.972;8.242;2023-06-26T13:20:25;5.15;;;3.20;;
47856;SDS011;33618;49.972;8.242;2023-06-26T13:22:56;3.65;;;3.20;;
47856;SDS011;33618;49.972;8.242;2023-06-26T13:25:23;6.97;;;3.78;;
47856;SDS011;33618;49.972;8.242;2023-06-26T13:27:50;11.95;;;3.22;;
47856;SDS011;33618;49.972;8.242;2023-06-26T13:30:17;15.98;;;3.28;;
47856;SDS011;33618;49.972;8.242;2023-06-26T13:32:44;3.55;;;2.90;;
47856;SDS011;33618;49.972;8.242;2023-06-26T13:35:12;7.18;;;2.90;;
47856;SDS011;33618;49.972;8.242;2023-06-26T13:37:40;3.67;;;2.95;;
47856;SDS011;33618;49.972;8.242;2023-06-26T13:40:17;3.67;;;2.80;;
47856;SDS011;33618;49.972;8.242;2023-06-26T13:42:45;4.13;;;3.03;;
47856;SDS011;33618;49.972;8.242;2023-06-26T13:45:13;4.32;;;2.67;;
47856;SDS011;33618;49.972;8.242;2023-06-26T13:47:56;4.20;;;2.90;;
47856;SDS011;33618;49.972;8.242;2023-06-26T13:50:23;4.78;;;2.45;;
47856;SDS011;33618;49.972;8.242;2023-06-26T13:52:50;4.13;;;2.45;;
47856;SDS011;33618;49.972;8.242;2023-06-26T13:55:17;4.40;;;2.40;;
47856;SDS011;33618;49.972;8.242;2023-06-26T13:57:44;3.67;;;2.40;;
47856;SDS011;33618;49.972;8.242;2023-06-26T14:00:12;2.42;;;2.15;;
47856;SDS011;33618;49.972;8.242;2023-06-26T14:02:39;3.17;;;1.90;;
47856;SDS011;33618;49.972;8.242;2023-06-26T14:05:06;4.63;;;2.35;;
47856;SDS011;33618;49.972;8.242;2023-06-26T14:07:34;3.13;;;2.00;;
47856;SDS011;33618;49.972;8.242;2023-06-26T14:10:01;2.72;;;2.13;;
47856;SDS011;33618;49.972;8.242;2023-06-26T14:12:29;2.53;;;1.92;;
47856;SDS011;33618;49.972;8.242;2023-06-26T14:14:57;4.93;;;2.28;;
47856;SDS011;33618;49.972;8.242;2023-06-26T14:17:24;2.35;;;2.03;;
47856;SDS011;33618;49.972;8.242;2023-06-26T14:19:52;3.25;;;2.17;;
47856;SDS011;33618;49.972;8.242;2023-06-26T14:22:19;2.67;;;2.10;;
47856;SDS011;33618;49.972;8.242;2023-06-26T14:24:47;2.03;;;1.85;;
47856;SDS011;33618;49.972;8.242;2023-06-26T14:27:15;4.15;;;2.00;;
47856;SDS011;33618;49.972;8.242;2023-06-26T14:29:42;2.72;;;2.00;;
47856;SDS011;33618;49.972;8.242;2023-06-26T14:32:10;6.18;;;2.10;;
47856;SDS011;33618;49.972;8.242;2023-06-26T14:34:37;3.38;;;2.08;;
47856;SDS011;33618;49.972;8.242;2023-06-26T14:37:06;2.00;;;1.80;;
47856;SDS011;33618;49.972;8.242;2023-06-26T14:39:33;2.47;;;1.90;;
47856;SDS011;33618;49.972;8.242;2023-06-26T14:42:00;2.33;;;2.03;;
47856;SDS011;33618;49.972;8.242;2023-06-26T14:44:28;5.75;;;2.03;;
47856;SDS011;33618;49.972;8.242;2023-06-26T14:46:55;2.63;;;1.92;;
47856;SDS011;33618;49.972;8.242;2023-06-26T14:49:22;4.00;;;1.83;;
47856;SDS011;33618;49.972;8.242;2023-06-26T14:51:49;6.35;;;2.03;;
47856;SDS011;33618;49.972;8.242;2023-06-26T14:54:17;3.58;;;1.80;;
47856;SDS011;33618;49.972;8.242;2023-06-26T14:56:44;3.28;;;1.80;;
47856;SDS011;33618;49.972;8.242;2023-06-26T14:59:12;2.30;;;1.70;;
47856;SDS011;33618;49.972;8.242;2023-06-26T15:01:39;2.90;;;1.85;;
47856;SDS011;33618;49.972;8.242;2023-06-26T15:04:08;5.82;;;1.70;;
47856;SDS011;33618;49.972;8.242;2023-06-26T15:06:37;2.20;;;1.77;;
47856;SDS011;33618;49.972;8.242;2023-06-26T15:09:04;2.58;;;1.63;;
47856;SDS011;33618;49.972;8.242;2023-06-26T15:11:32;7.80;;;1.92;;
47856;SDS011;33618;49.972;8.242;2023-06-26T15:13:59;1.60;;;1.40;;
47856;SDS011;33618;49.972;8.242;2023-06-26T15:16:28;3.10;;;1.60;;
47856;SDS011;33618;49.972;8.242;2023-06-26T15:18:56;1.88;;;1.70;;